sensor_id;sensor_type;location;lat;lon;timestamp;temperature;humidity
5802;DHT22;2927;49.366;8.530;2023-04-03T00:01:31;3.60;99.90
5802;DHT22;2927;49.366;8.530;2023-04-03T00:03:56;3.50;99.90
5802;DHT22;2927;49.366;8.530;2023-04-03T00:06:23;3.50;99.90
5802;DHT22;2927;49.366;8.530;2023-04-03T00:08:49;3.60;99.90
5802;DHT22;2927;49.366;8.530;2023-04-03T00:11:15;3.50;99.90
5802;DHT22;2927;49.366;8.530;2023-04-03T00:13:41;3.50;99.90
5802;DHT22;2927;49.366;8.530;2023-04-03T00:16:08;3.50;1.00
5802;DHT22;2927;49.366;8.530;2023-04-03T00:18:34;3.50;1.00
5802;DHT22;2927;49.366;8.530;2023-04-03T00:21:00;3.50;61.30
5802;DHT22;2927;49.366;8.530;2023-04-03T00:23:25;3.50;99.90
5802;DHT22;2927;49.366;8.530;2023-04-03T00:25:52;3.40;99.90
5802;DHT22;2927;49.366;8.530;2023-04-03T00:28:17;3.40;1.00
5802;DHT22;2927;49.366;8.530;2023-04-03T00:30:43;3.30;1.00
5802;DHT22;2927;49.366;8.530;2023-04-03T00:33:12;3.30;99.90
5802;DHT22;2927;49.366;8.530;2023-04-03T00:35:37;3.30;99.90
5802;DHT22;2927;49.366;8.530;2023-04-03T00:38:03;3.30;99.90
5802;DHT22;2927;49.366;8.530;2023-04-03T00:40:34;3.30;99.90
5802;DHT22;2927;49.366;8.530;2023-04-03T00:43:00;3.30;99.90
5802;DHT22;2927;49.366;8.530;2023-04-03T00:45:37;3.30;99.90
5802;DHT22;2927;49.366;8.530;2023-04-03T00:48:05;3.30;1.00
5802;DHT22;2927;49.366;8.530;2023-04-03T00:50:33;3.20;99.90
5802;DHT22;2927;49.366;8.530;2023-04-03T00:53:00;3.10;1.00
5802;DHT22;2927;49.366;8.530;2023-04-03T00:55:26;3.10;1.00
5802;DHT22;2927;49.366;8.530;2023-04-03T00:57:52;3.00;99.90
5802;DHT22;2927;49.366;8.530;2023-04-03T01:00:20;3.00;1.00
5802;DHT22;2927;49.366;8.530;2023-04-03T01:02:46;3.00;1.00
5802;DHT22;2927;49.366;8.530;2023-04-03T01:05:12;3.00;1.00
5802;DHT22;2927;49.366;8.530;2023-04-03T01:07:40;3.00;1.00
5802;DHT22;2927;49.366;8.530;2023-04-03T01:10:09;3.00;1.00
5802;DHT22;2927;49.366;8.530;2023-04-03T01:12:37;2.90;1.00
5802;DHT22;2927;49.366;8.530;2023-04-03T01:15:07;2.90;1.00
5802;DHT22;2927;49.366;8.530;2023-04-03T01:17:45;2.80;54.80
5802;DHT22;2927;49.366;8.530;2023-04-03T01:25:09;2.80;1.00
5802;DHT22;2927;49.366;8.530;2023-04-03T01:27:34;2.80;15.00
5802;DHT22;2927;49.366;8.530;2023-04-03T01:30:00;2.80;1.00
5802;DHT22;2927;49.366;8.530;2023-04-03T01:32:26;2.80;1.00
5802;DHT22;2927;49.366;8.530;2023-04-03T01:34:51;2.80;1.00
5802;DHT22;2927;49.366;8.530;2023-04-03T01:37:17;2.90;1.00
5802;DHT22;2927;49.366;8.530;2023-04-03T01:39:42;2.80;1.00
5802;DHT22;2927;49.366;8.530;2023-04-03T01:42:08;2.80;1.00
5802;DHT22;2927;49.366;8.530;2023-04-03T01:44:33;2.80;1.00
5802;DHT22;2927;49.366;8.530;2023-04-03T01:46:59;2.80;1.00
5802;DHT22;2927;49.366;8.530;2023-04-03T01:49:24;2.80;1.00
5802;DHT22;2927;49.366;8.530;2023-04-03T01:51:50;2.80;1.00
5802;DHT22;2927;49.366;8.530;2023-04-03T01:54:15;2.70;1.00
5802;DHT22;2927;49.366;8.530;2023-04-03T01:56:41;2.70;1.00
5802;DHT22;2927;49.366;8.530;2023-04-03T01:59:06;2.60;1.00
5802;DHT22;2927;49.366;8.530;2023-04-03T02:01:32;2.70;1.00
5802;DHT22;2927;49.366;8.530;2023-04-03T02:03:57;2.60;1.00
5802;DHT22;2927;49.366;8.530;2023-04-03T02:06:23;2.60;99.90
5802;DHT22;2927;49.366;8.530;2023-04-03T02:08:48;2.60;99.90
5802;DHT22;2927;49.366;8.530;2023-04-03T02:11:14;2.50;99.90
5802;DHT22;2927;49.366;8.530;2023-04-03T02:13:39;2.50;99.90
5802;DHT22;2927;49.366;8.530;2023-04-03T02:16:09;2.40;1.00
5802;DHT22;2927;49.366;8.530;2023-04-03T02:18:36;2.40;1.00
5802;DHT22;2927;49.366;8.530;2023-04-03T02:21:02;2.30;1.00
5802;DHT22;2927;49.366;8.530;2023-04-03T02:23:27;2.30;1.00
5802;DHT22;2927;49.366;8.530;2023-04-03T02:25:53;2.30;1.00
5802;DHT22;2927;49.366;8.530;2023-04-03T02:28:18;2.30;98.60
5802;DHT22;2927;49.366;8.530;2023-04-03T02:30:44;2.20;36.40
5802;DHT22;2927;49.366;8.530;2023-04-03T02:33:10;2.30;99.90
5802;DHT22;2927;49.366;8.530;2023-04-03T02:35:35;2.30;1.00
5802;DHT22;2927;49.366;8.530;2023-04-03T02:38:02;2.30;99.90
5802;DHT22;2927;49.366;8.530;2023-04-03T02:40:27;2.30;99.90
5802;DHT22;2927;49.366;8.530;2023-04-03T02:42:53;2.30;99.90
5802;DHT22;2927;49.366;8.530;2023-04-03T02:45:18;2.30;1.00
5802;DHT22;2927;49.366;8.530;2023-04-03T02:47:44;2.30;99.90
5802;DHT22;2927;49.366;8.530;2023-04-03T02:50:09;2.30;1.00
5802;DHT22;2927;49.366;8.530;2023-04-03T02:52:35;2.30;1.00
5802;DHT22;2927;49.366;8.530;2023-04-03T02:55:00;2.30;81.10
5802;DHT22;2927;49.366;8.530;2023-04-03T02:57:26;2.20;99.90
5802;DHT22;2927;49.366;8.530;2023-04-03T02:59:51;2.20;1.00
5802;DHT22;2927;49.366;8.530;2023-04-03T03:02:17;2.10;1.00
5802;DHT22;2927;49.366;8.530;2023-04-03T03:04:42;2.10;99.90
5802;DHT22;2927;49.366;8.530;2023-04-03T03:07:08;2.10;99.90
5802;DHT22;2927;49.366;8.530;2023-04-03T03:09:33;2.00;99.90
5802;DHT22;2927;49.366;8.530;2023-04-03T03:11:59;2.10;99.90
5802;DHT22;2927;49.366;8.530;2023-04-03T03:14:25;2.10;99.90
5802;DHT22;2927;49.366;8.530;2023-04-03T03:16:50;2.10;99.90
5802;DHT22;2927;49.366;8.530;2023-04-03T03:19:16;2.00;1.00
5802;DHT22;2927;49.366;8.530;2023-04-03T03:21:42;2.00;1.00
5802;DHT22;2927;49.366;8.530;2023-04-03T03:24:07;2.00;99.90
5802;DHT22;2927;49.366;8.530;2023-04-03T03:26:33;2.00;1.00
5802;DHT22;2927;49.366;8.530;2023-04-03T03:28:59;1.90;1.00
5802;DHT22;2927;49.366;8.530;2023-04-03T03:31:24;1.90;99.90
5802;DHT22;2927;49.366;8.530;2023-04-03T03:33:50;1.80;1.00
5802;DHT22;2927;49.366;8.530;2023-04-03T03:36:16;1.80;1.00
5802;DHT22;2927;49.366;8.530;2023-04-03T03:38:42;1.70;1.00
5802;DHT22;2927;49.366;8.530;2023-04-03T03:41:07;1.70;1.00
5802;DHT22;2927;49.366;8.530;2023-04-03T03:43:33;1.60;57.70
5802;DHT22;2927;49.366;8.530;2023-04-03T03:45:59;1.60;1.00
5802;DHT22;2927;49.366;8.530;2023-04-03T03:48:24;1.50;1.00
5802;DHT22;2927;49.366;8.530;2023-04-03T03:50:50;1.50;1.00
5802;DHT22;2927;49.366;8.530;2023-04-03T03:53:15;1.50;1.00
5802;DHT22;2927;49.366;8.530;2023-04-03T03:55:41;1.50;1.00
5802;DHT22;2927;49.366;8.530;2023-04-03T03:58:07;1.40;1.00
5802;DHT22;2927;49.366;8.530;2023-04-03T04:00:32;1.40;1.00
5802;DHT22;2927;49.366;8.530;2023-04-03T04:02:58;1.40;1.00
5802;DHT22;2927;49.366;8.530;2023-04-03T04:05:23;1.40;1.00
5802;DHT22;2927;49.366;8.530;2023-04-03T04:07:49;1.40;1.00
5802;DHT22;2927;49.366;8.530;2023-04-03T04:10:14;1.40;1.00
5802;DHT22;2927;49.366;8.530;2023-04-03T04:12:40;1.40;99.90
5802;DHT22;2927;49.366;8.530;2023-04-03T04:15:06;1.40;99.90
5802;DHT22;2927;49.366;8.530;2023-04-03T04:17:31;1.50;99.90
5802;DHT22;2927;49.366;8.530;2023-04-03T04:19:57;1.40;99.90
5802;DHT22;2927;49.366;8.530;2023-04-03T04:22:22;1.40;99.90
5802;DHT22;2927;49.366;8.530;2023-04-03T04:24:48;1.40;99.90
5802;DHT22;2927;49.366;8.530;2023-04-03T04:27:13;1.40;1.00
5802;DHT22;2927;49.366;8.530;2023-04-03T04:29:40;1.40;99.90
5802;DHT22;2927;49.366;8.530;2023-04-03T04:32:06;1.40;54.00
5802;DHT22;2927;49.366;8.530;2023-04-03T04:34:31;1.40;1.00
5802;DHT22;2927;49.366;8.530;2023-04-03T04:36:57;1.40;1.00
5802;DHT22;2927;49.366;8.530;2023-04-03T04:39:22;1.40;1.00
5802;DHT22;2927;49.366;8.530;2023-04-03T04:41:48;1.40;1.00
5802;DHT22;2927;49.366;8.530;2023-04-03T04:44:13;1.40;1.00
5802;DHT22;2927;49.366;8.530;2023-04-03T04:46:40;1.30;99.90
5802;DHT22;2927;49.366;8.530;2023-04-03T04:49:05;1.30;1.00
5802;DHT22;2927;49.366;8.530;2023-04-03T04:51:30;1.30;1.00
5802;DHT22;2927;49.366;8.530;2023-04-03T04:53:56;1.20;1.00
5802;DHT22;2927;49.366;8.530;2023-04-03T04:56:21;1.20;1.00
5802;DHT22;2927;49.366;8.530;2023-04-03T04:58:47;1.20;1.00
5802;DHT22;2927;49.366;8.530;2023-04-03T05:01:13;1.20;99.90
5802;DHT22;2927;49.366;8.530;2023-04-03T05:03:38;1.20;99.90
5802;DHT22;2927;49.366;8.530;2023-04-03T05:06:04;1.20;99.90
5802;DHT22;2927;49.366;8.530;2023-04-03T05:08:30;1.20;99.90
5802;DHT22;2927;49.366;8.530;2023-04-03T05:10:56;1.20;99.90
5802;DHT22;2927;49.366;8.530;2023-04-03T05:13:21;1.20;99.90
5802;DHT22;2927;49.366;8.530;2023-04-03T05:15:47;1.30;99.90
5802;DHT22;2927;49.366;8.530;2023-04-03T05:18:13;1.40;95.20
5802;DHT22;2927;49.366;8.530;2023-04-03T05:20:39;1.50;1.00
5802;DHT22;2927;49.366;8.530;2023-04-03T05:23:04;1.60;1.00
5802;DHT22;2927;49.366;8.530;2023-04-03T05:25:30;1.70;99.90
5802;DHT22;2927;49.366;8.530;2023-04-03T05:27:56;1.80;19.20
5802;DHT22;2927;49.366;8.530;2023-04-03T05:30:21;1.90;1.00
5802;DHT22;2927;49.366;8.530;2023-04-03T05:32:47;2.00;76.60
5802;DHT22;2927;49.366;8.530;2023-04-03T05:35:13;2.20;1.00
5802;DHT22;2927;49.366;8.530;2023-04-03T05:37:38;2.40;1.00
5802;DHT22;2927;49.366;8.530;2023-04-03T05:40:05;2.60;99.90
5802;DHT22;2927;49.366;8.530;2023-04-03T05:42:31;2.70;1.00
5802;DHT22;2927;49.366;8.530;2023-04-03T05:44:56;2.90;1.00
5802;DHT22;2927;49.366;8.530;2023-04-03T05:47:22;3.10;1.00
5802;DHT22;2927;49.366;8.530;2023-04-03T05:49:48;3.50;1.00
5802;DHT22;2927;49.366;8.530;2023-04-03T05:52:29;5.10;1.00
5802;DHT22;2927;49.366;8.530;2023-04-03T05:54:55;6.90;99.90
5802;DHT22;2927;49.366;8.530;2023-04-03T05:57:21;8.30;1.00
5802;DHT22;2927;49.366;8.530;2023-04-03T05:59:47;9.20;1.00
5802;DHT22;2927;49.366;8.530;2023-04-03T06:02:16;10.20;99.90
5802;DHT22;2927;49.366;8.530;2023-04-03T06:04:42;10.40;99.90
5802;DHT22;2927;49.366;8.530;2023-04-03T06:07:11;10.90;99.90
5802;DHT22;2927;49.366;8.530;2023-04-03T06:09:37;11.00;99.90
5802;DHT22;2927;49.366;8.530;2023-04-03T06:12:02;11.60;99.90
5802;DHT22;2927;49.366;8.530;2023-04-03T06:14:28;11.50;99.90
5802;DHT22;2927;49.366;8.530;2023-04-03T06:16:53;12.30;99.90
5802;DHT22;2927;49.366;8.530;2023-04-03T06:19:19;12.70;82.70
5802;DHT22;2927;49.366;8.530;2023-04-03T06:21:45;12.50;61.80
5802;DHT22;2927;49.366;8.530;2023-04-03T06:24:14;12.70;66.80
5802;DHT22;2927;49.366;8.530;2023-04-03T06:26:40;13.10;60.70
5802;DHT22;2927;49.366;8.530;2023-04-03T06:29:06;12.60;21.60
5802;DHT22;2927;49.366;8.530;2023-04-03T06:31:31;12.80;38.40
5802;DHT22;2927;49.366;8.530;2023-04-03T06:33:57;13.20;17.00
5802;DHT22;2927;49.366;8.530;2023-04-03T06:36:22;13.80;16.60
5802;DHT22;2927;49.366;8.530;2023-04-03T06:38:48;14.30;1.00
5802;DHT22;2927;49.366;8.530;2023-04-03T06:41:14;15.20;1.00
5802;DHT22;2927;49.366;8.530;2023-04-03T06:43:42;14.70;1.00
5802;DHT22;2927;49.366;8.530;2023-04-03T06:46:15;14.90;1.00
5802;DHT22;2927;49.366;8.530;2023-04-03T06:48:42;15.20;1.00
5802;DHT22;2927;49.366;8.530;2023-04-03T06:53:48;15.00;1.00
5802;DHT22;2927;49.366;8.530;2023-04-03T06:56:14;15.40;1.00
5802;DHT22;2927;49.366;8.530;2023-04-03T06:58:41;15.00;1.00
5802;DHT22;2927;49.366;8.530;2023-04-03T07:01:07;14.90;1.00
5802;DHT22;2927;49.366;8.530;2023-04-03T07:03:34;15.00;1.00
5802;DHT22;2927;49.366;8.530;2023-04-03T07:06:00;15.20;1.00
5802;DHT22;2927;49.366;8.530;2023-04-03T07:08:26;15.10;1.00
5802;DHT22;2927;49.366;8.530;2023-04-03T07:10:52;15.40;1.00
5802;DHT22;2927;49.366;8.530;2023-04-03T07:13:17;16.40;1.00
5802;DHT22;2927;49.366;8.530;2023-04-03T07:15:43;15.80;1.00
5802;DHT22;2927;49.366;8.530;2023-04-03T07:18:09;15.80;1.00
5802;DHT22;2927;49.366;8.530;2023-04-03T07:20:34;16.30;1.00
5802;DHT22;2927;49.366;8.530;2023-04-03T07:23:00;16.40;1.00
5802;DHT22;2927;49.366;8.530;2023-04-03T07:25:27;15.80;1.00
5802;DHT22;2927;49.366;8.530;2023-04-03T07:27:53;15.40;1.00
5802;DHT22;2927;49.366;8.530;2023-04-03T07:30:20;15.30;1.00
5802;DHT22;2927;49.366;8.530;2023-04-03T07:32:45;16.20;1.00
5802;DHT22;2927;49.366;8.530;2023-04-03T07:35:11;15.60;1.00
5802;DHT22;2927;49.366;8.530;2023-04-03T07:37:37;15.10;1.00
5802;DHT22;2927;49.366;8.530;2023-04-03T07:40:03;15.10;1.00
5802;DHT22;2927;49.366;8.530;2023-04-03T07:42:29;15.80;1.00
5802;DHT22;2927;49.366;8.530;2023-04-03T07:44:55;15.90;1.00
5802;DHT22;2927;49.366;8.530;2023-04-03T07:47:21;15.40;1.00
5802;DHT22;2927;49.366;8.530;2023-04-03T07:49:47;15.00;1.00
5802;DHT22;2927;49.366;8.530;2023-04-03T07:52:13;15.00;1.00
5802;DHT22;2927;49.366;8.530;2023-04-03T07:54:41;15.30;1.00
5802;DHT22;2927;49.366;8.530;2023-04-03T07:57:06;15.20;1.00
5802;DHT22;2927;49.366;8.530;2023-04-03T07:59:32;14.80;1.00
5802;DHT22;2927;49.366;8.530;2023-04-03T08:01:57;14.10;1.00
5802;DHT22;2927;49.366;8.530;2023-04-03T08:04:23;14.40;1.00
5802;DHT22;2927;49.366;8.530;2023-04-03T08:06:49;14.60;1.00
5802;DHT22;2927;49.366;8.530;2023-04-03T08:09:15;14.80;1.00
5802;DHT22;2927;49.366;8.530;2023-04-03T08:11:42;14.80;1.00
5802;DHT22;2927;49.366;8.530;2023-04-03T08:14:08;14.70;1.00
5802;DHT22;2927;49.366;8.530;2023-04-03T08:16:34;14.90;1.00
5802;DHT22;2927;49.366;8.530;2023-04-03T08:18:59;15.10;1.00
5802;DHT22;2927;49.366;8.530;2023-04-03T08:21:25;14.90;1.00
5802;DHT22;2927;49.366;8.530;2023-04-03T08:23:51;15.20;1.00
5802;DHT22;2927;49.366;8.530;2023-04-03T08:26:20;15.80;1.00
5802;DHT22;2927;49.366;8.530;2023-04-03T08:28:46;15.50;1.00
5802;DHT22;2927;49.366;8.530;2023-04-03T08:31:15;15.10;1.00
5802;DHT22;2927;49.366;8.530;2023-04-03T08:33:41;15.40;1.00
5802;DHT22;2927;49.366;8.530;2023-04-03T08:36:14;15.90;1.00
5802;DHT22;2927;49.366;8.530;2023-04-03T08:38:41;15.90;1.00
5802;DHT22;2927;49.366;8.530;2023-04-03T08:41:27;15.90;1.00
5802;DHT22;2927;49.366;8.530;2023-04-03T08:49:48;16.70;1.00
5802;DHT22;2927;49.366;8.530;2023-04-03T08:54:57;15.50;1.00
5802;DHT22;2927;49.366;8.530;2023-04-03T08:57:36;15.60;1.00
5802;DHT22;2927;49.366;8.530;2023-04-03T09:00:07;15.80;1.00
5802;DHT22;2927;49.366;8.530;2023-04-03T09:02:45;15.70;1.00
5802;DHT22;2927;49.366;8.530;2023-04-03T09:05:15;15.80;1.00
5802;DHT22;2927;49.366;8.530;2023-04-03T09:08:00;16.90;1.00
5802;DHT22;2927;49.366;8.530;2023-04-03T09:10:30;17.60;1.00
5802;DHT22;2927;49.366;8.530;2023-04-03T09:15:29;18.70;1.00
5802;DHT22;2927;49.366;8.530;2023-04-03T09:18:21;18.40;1.00
5802;DHT22;2927;49.366;8.530;2023-04-03T09:23:30;18.10;1.00
5802;DHT22;2927;49.366;8.530;2023-04-03T09:26:13;18.50;1.00
5802;DHT22;2927;49.366;8.530;2023-04-03T09:28:40;18.20;1.00
5802;DHT22;2927;49.366;8.530;2023-04-03T09:31:23;18.20;1.00
5802;DHT22;2927;49.366;8.530;2023-04-03T09:33:52;17.30;1.00
5802;DHT22;2927;49.366;8.530;2023-04-03T09:36:38;16.30;1.00
5802;DHT22;2927;49.366;8.530;2023-04-03T09:39:07;15.80;1.00
5802;DHT22;2927;49.366;8.530;2023-04-03T09:41:35;16.30;1.00
5802;DHT22;2927;49.366;8.530;2023-04-03T09:44:01;16.50;1.00
5802;DHT22;2927;49.366;8.530;2023-04-03T09:46:31;16.60;1.00
5802;DHT22;2927;49.366;8.530;2023-04-03T09:49:00;17.90;1.00
5802;DHT22;2927;49.366;8.530;2023-04-03T09:51:27;18.50;1.00
5802;DHT22;2927;49.366;8.530;2023-04-03T09:53:54;18.60;1.00
5802;DHT22;2927;49.366;8.530;2023-04-03T09:56:25;18.50;1.00
5802;DHT22;2927;49.366;8.530;2023-04-03T10:01:38;17.10;1.00
5802;DHT22;2927;49.366;8.530;2023-04-03T10:04:11;16.20;1.00
5802;DHT22;2927;49.366;8.530;2023-04-03T10:06:55;14.70;1.00
5802;DHT22;2927;49.366;8.530;2023-04-03T10:09:31;13.60;1.00
5802;DHT22;2927;49.366;8.530;2023-04-03T10:14:28;12.40;1.00
5802;DHT22;2927;49.366;8.530;2023-04-03T10:19:53;12.10;1.00
5802;DHT22;2927;49.366;8.530;2023-04-03T10:23:02;11.40;1.00
5802;DHT22;2927;49.366;8.530;2023-04-03T10:27:59;11.00;1.00
5802;DHT22;2927;49.366;8.530;2023-04-03T10:33:55;10.80;1.00
5802;DHT22;2927;49.366;8.530;2023-04-03T10:39:11;10.50;1.00
5802;DHT22;2927;49.366;8.530;2023-04-03T10:45:16;10.10;1.00
5802;DHT22;2927;49.366;8.530;2023-04-03T10:48:10;10.10;1.00
5802;DHT22;2927;49.366;8.530;2023-04-03T10:51:05;10.00;1.00
5802;DHT22;2927;49.366;8.530;2023-04-03T10:56:41;9.90;1.00
5802;DHT22;2927;49.366;8.530;2023-04-03T11:01:46;10.20;1.00
5802;DHT22;2927;49.366;8.530;2023-04-03T11:04:16;9.90;1.00
5802;DHT22;2927;49.366;8.530;2023-04-03T11:07:00;9.60;1.00
5802;DHT22;2927;49.366;8.530;2023-04-03T11:09:30;9.80;1.00
5802;DHT22;2927;49.366;8.530;2023-04-03T11:12:04;9.40;1.00
5802;DHT22;2927;49.366;8.530;2023-04-03T11:14:34;9.50;1.00
5802;DHT22;2927;49.366;8.530;2023-04-03T11:19:59;9.70;1.00
5802;DHT22;2927;49.366;8.530;2023-04-03T11:22:34;9.70;1.00
5802;DHT22;2927;49.366;8.530;2023-04-03T11:36:38;9.40;1.00
5802;DHT22;2927;49.366;8.530;2023-04-03T11:39:24;9.50;1.00
5802;DHT22;2927;49.366;8.530;2023-04-03T11:41:51;9.90;1.00
5802;DHT22;2927;49.366;8.530;2023-04-03T11:44:35;10.30;1.00
5802;DHT22;2927;49.366;8.530;2023-04-03T11:47:08;9.90;1.00
5802;DHT22;2927;49.366;8.530;2023-04-03T11:55:46;9.30;1.00
5802;DHT22;2927;49.366;8.530;2023-04-03T11:58:31;9.10;1.00
5802;DHT22;2927;49.366;8.530;2023-04-03T12:01:08;9.20;1.00
5802;DHT22;2927;49.366;8.530;2023-04-03T12:04:05;9.30;1.00
5802;DHT22;2927;49.366;8.530;2023-04-03T12:08:59;9.40;1.00
5802;DHT22;2927;49.366;8.530;2023-04-03T12:11:30;9.50;1.00
5802;DHT22;2927;49.366;8.530;2023-04-03T12:24:30;9.70;1.00
5802;DHT22;2927;49.366;8.530;2023-04-03T12:37:59;9.40;1.00
5802;DHT22;2927;49.366;8.530;2023-04-03T12:48:47;9.20;1.00
5802;DHT22;2927;49.366;8.530;2023-04-03T12:51:40;9.40;1.00
5802;DHT22;2927;49.366;8.530;2023-04-03T12:57:12;8.90;1.00
5802;DHT22;2927;49.366;8.530;2023-04-03T12:59:41;9.00;1.00
5802;DHT22;2927;49.366;8.530;2023-04-03T13:02:30;9.20;1.00
5802;DHT22;2927;49.366;8.530;2023-04-03T13:04:58;9.40;1.00
5802;DHT22;2927;49.366;8.530;2023-04-03T13:07:31;9.50;1.00
5802;DHT22;2927;49.366;8.530;2023-04-03T13:10:13;9.70;1.00
5802;DHT22;2927;49.366;8.530;2023-04-03T13:12:54;9.60;1.00
5802;DHT22;2927;49.366;8.530;2023-04-03T13:15:27;9.60;1.00
5802;DHT22;2927;49.366;8.530;2023-04-03T13:17:54;9.50;1.00
5802;DHT22;2927;49.366;8.530;2023-04-03T13:23:01;10.30;1.00
5802;DHT22;2927;49.366;8.530;2023-04-03T13:25:30;10.30;1.00
5802;DHT22;2927;49.366;8.530;2023-04-03T13:27:58;10.10;1.00
5802;DHT22;2927;49.366;8.530;2023-04-03T13:30:35;9.80;1.00
5802;DHT22;2927;49.366;8.530;2023-04-03T13:33:04;9.50;1.00
5802;DHT22;2927;49.366;8.530;2023-04-03T13:35:37;9.30;1.00
5802;DHT22;2927;49.366;8.530;2023-04-03T13:38:24;9.50;1.00
5802;DHT22;2927;49.366;8.530;2023-04-03T13:40:53;9.80;1.00
5802;DHT22;2927;49.366;8.530;2023-04-03T13:43:26;9.70;1.00
5802;DHT22;2927;49.366;8.530;2023-04-03T13:46:02;9.40;1.00
5802;DHT22;2927;49.366;8.530;2023-04-03T13:48:51;9.40;1.00
5802;DHT22;2927;49.366;8.530;2023-04-03T13:51:21;9.50;1.00
5802;DHT22;2927;49.366;8.530;2023-04-03T13:53:57;9.50;1.00
5802;DHT22;2927;49.366;8.530;2023-04-03T13:56:32;9.60;1.00
5802;DHT22;2927;49.366;8.530;2023-04-03T14:06:45;10.20;1.00
5802;DHT22;2927;49.366;8.530;2023-04-03T14:09:12;10.40;1.00
5802;DHT22;2927;49.366;8.530;2023-04-03T14:11:38;10.50;1.00
5802;DHT22;2927;49.366;8.530;2023-04-03T14:14:13;10.10;1.00
5802;DHT22;2927;49.366;8.530;2023-04-03T14:16:42;10.20;1.00
5802;DHT22;2927;49.366;8.530;2023-04-03T14:19:17;9.80;1.00
5802;DHT22;2927;49.366;8.530;2023-04-03T14:21:43;9.40;1.00
5802;DHT22;2927;49.366;8.530;2023-04-03T14:24:08;9.20;1.00
5802;DHT22;2927;49.366;8.530;2023-04-03T14:26:34;9.00;1.00
5802;DHT22;2927;49.366;8.530;2023-04-03T14:29:00;9.20;1.00
5802;DHT22;2927;49.366;8.530;2023-04-03T14:31:25;9.40;1.00
5802;DHT22;2927;49.366;8.530;2023-04-03T14:33:51;9.30;1.00
5802;DHT22;2927;49.366;8.530;2023-04-03T14:36:23;9.60;1.00
5802;DHT22;2927;49.366;8.530;2023-04-03T14:38:51;9.70;1.00
5802;DHT22;2927;49.366;8.530;2023-04-03T14:41:21;9.90;1.00
5802;DHT22;2927;49.366;8.530;2023-04-03T14:43:48;9.90;1.00
5802;DHT22;2927;49.366;8.530;2023-04-03T14:46:24;9.60;1.00
5802;DHT22;2927;49.366;8.530;2023-04-03T14:48:51;9.50;1.00
5802;DHT22;2927;49.366;8.530;2023-04-03T14:51:17;9.50;1.00
5802;DHT22;2927;49.366;8.530;2023-04-03T14:53:43;9.40;1.00
5802;DHT22;2927;49.366;8.530;2023-04-03T14:56:17;9.40;1.00
5802;DHT22;2927;49.366;8.530;2023-04-03T14:58:43;9.40;1.00
5802;DHT22;2927;49.366;8.530;2023-04-03T15:01:11;9.50;1.00
5802;DHT22;2927;49.366;8.530;2023-04-03T15:03:39;9.60;1.00
5802;DHT22;2927;49.366;8.530;2023-04-03T15:06:05;9.20;1.00
5802;DHT22;2927;49.366;8.530;2023-04-03T15:08:30;9.10;1.00
5802;DHT22;2927;49.366;8.530;2023-04-03T15:10:56;9.10;1.00
5802;DHT22;2927;49.366;8.530;2023-04-03T15:13:23;9.20;1.00
5802;DHT22;2927;49.366;8.530;2023-04-03T15:15:50;9.20;1.00
5802;DHT22;2927;49.366;8.530;2023-04-03T15:18:25;9.40;1.00
5802;DHT22;2927;49.366;8.530;2023-04-03T15:20:54;9.60;1.00
5802;DHT22;2927;49.366;8.530;2023-04-03T15:23:20;9.60;1.00
5802;DHT22;2927;49.366;8.530;2023-04-03T15:25:51;9.40;1.00
5802;DHT22;2927;49.366;8.530;2023-04-03T15:28:30;9.40;1.00
5802;DHT22;2927;49.366;8.530;2023-04-03T15:30:56;9.30;1.00
5802;DHT22;2927;49.366;8.530;2023-04-03T15:33:22;9.20;1.00
5802;DHT22;2927;49.366;8.530;2023-04-03T15:35:48;9.20;1.00
5802;DHT22;2927;49.366;8.530;2023-04-03T15:38:14;9.10;1.00
5802;DHT22;2927;49.366;8.530;2023-04-03T15:40:40;9.30;1.00
5802;DHT22;2927;49.366;8.530;2023-04-03T15:43:07;9.50;1.00
5802;DHT22;2927;49.366;8.530;2023-04-03T15:45:33;9.50;1.00
5802;DHT22;2927;49.366;8.530;2023-04-03T15:48:01;9.20;1.00
5802;DHT22;2927;49.366;8.530;2023-04-03T15:50:27;9.30;1.00
5802;DHT22;2927;49.366;8.530;2023-04-03T15:52:53;9.20;1.00
5802;DHT22;2927;49.366;8.530;2023-04-03T15:55:25;9.10;1.00
5802;DHT22;2927;49.366;8.530;2023-04-03T15:57:52;9.00;1.00
5802;DHT22;2927;49.366;8.530;2023-04-03T16:00:19;8.90;1.00
5802;DHT22;2927;49.366;8.530;2023-04-03T16:02:46;9.00;1.00
5802;DHT22;2927;49.366;8.530;2023-04-03T16:05:13;9.00;1.00
5802;DHT22;2927;49.366;8.530;2023-04-03T16:07:42;9.10;1.00
5802;DHT22;2927;49.366;8.530;2023-04-03T16:10:09;9.20;1.00
5802;DHT22;2927;49.366;8.530;2023-04-03T16:12:36;9.30;1.00
5802;DHT22;2927;49.366;8.530;2023-04-03T16:15:02;9.30;1.00
5802;DHT22;2927;49.366;8.530;2023-04-03T16:17:28;9.30;1.00
5802;DHT22;2927;49.366;8.530;2023-04-03T16:19:56;9.30;1.00
5802;DHT22;2927;49.366;8.530;2023-04-03T16:22:24;9.20;1.00
5802;DHT22;2927;49.366;8.530;2023-04-03T16:24:50;9.20;1.00
5802;DHT22;2927;49.366;8.530;2023-04-03T16:27:16;9.10;1.00
5802;DHT22;2927;49.366;8.530;2023-04-03T16:29:41;9.10;1.00
5802;DHT22;2927;49.366;8.530;2023-04-03T16:32:08;8.80;1.00
5802;DHT22;2927;49.366;8.530;2023-04-03T16:34:34;8.80;1.00
5802;DHT22;2927;49.366;8.530;2023-04-03T16:36:59;8.80;1.00
5802;DHT22;2927;49.366;8.530;2023-04-03T16:39:25;8.90;1.00
5802;DHT22;2927;49.366;8.530;2023-04-03T16:41:51;8.90;1.00
5802;DHT22;2927;49.366;8.530;2023-04-03T16:44:17;9.00;1.00
5802;DHT22;2927;49.366;8.530;2023-04-03T16:46:42;8.80;1.00
5802;DHT22;2927;49.366;8.530;2023-04-03T16:49:08;8.70;1.00
5802;DHT22;2927;49.366;8.530;2023-04-03T16:51:33;8.70;1.00
5802;DHT22;2927;49.366;8.530;2023-04-03T16:53:59;8.50;1.00
5802;DHT22;2927;49.366;8.530;2023-04-03T16:56:24;8.50;1.00
5802;DHT22;2927;49.366;8.530;2023-04-03T16:58:52;8.40;1.00
5802;DHT22;2927;49.366;8.530;2023-04-03T17:01:20;8.40;1.00
5802;DHT22;2927;49.366;8.530;2023-04-03T17:03:47;8.30;1.00
5802;DHT22;2927;49.366;8.530;2023-04-03T17:06:16;8.20;1.00
5802;DHT22;2927;49.366;8.530;2023-04-03T17:08:43;8.20;1.00
5802;DHT22;2927;49.366;8.530;2023-04-03T17:11:09;8.10;1.00
5802;DHT22;2927;49.366;8.530;2023-04-03T17:13:35;8.10;1.00
5802;DHT22;2927;49.366;8.530;2023-04-03T17:16:02;8.10;1.00
5802;DHT22;2927;49.366;8.530;2023-04-03T17:18:30;8.10;1.00
5802;DHT22;2927;49.366;8.530;2023-04-03T17:20:56;7.90;1.00
5802;DHT22;2927;49.366;8.530;2023-04-03T17:23:23;7.80;1.00
5802;DHT22;2927;49.366;8.530;2023-04-03T17:25:49;7.70;1.00
5802;DHT22;2927;49.366;8.530;2023-04-03T17:28:15;7.60;1.00
5802;DHT22;2927;49.366;8.530;2023-04-03T17:30:41;7.60;1.00
5802;DHT22;2927;49.366;8.530;2023-04-03T17:33:07;7.60;1.00
5802;DHT22;2927;49.366;8.530;2023-04-03T17:35:32;7.50;1.00
5802;DHT22;2927;49.366;8.530;2023-04-03T17:37:58;7.40;1.00
5802;DHT22;2927;49.366;8.530;2023-04-03T17:40:23;7.40;1.00
5802;DHT22;2927;49.366;8.530;2023-04-03T17:42:49;7.30;1.00
5802;DHT22;2927;49.366;8.530;2023-04-03T17:45:15;7.20;1.00
5802;DHT22;2927;49.366;8.530;2023-04-03T17:47:40;7.10;1.00
5802;DHT22;2927;49.366;8.530;2023-04-03T17:50:06;7.10;1.00
5802;DHT22;2927;49.366;8.530;2023-04-03T17:52:32;7.00;1.00
5802;DHT22;2927;49.366;8.530;2023-04-03T17:54:58;7.00;1.00
5802;DHT22;2927;49.366;8.530;2023-04-03T17:57:23;6.90;1.00
5802;DHT22;2927;49.366;8.530;2023-04-03T17:59:49;6.90;1.00
5802;DHT22;2927;49.366;8.530;2023-04-03T18:02:15;6.80;1.00
5802;DHT22;2927;49.366;8.530;2023-04-03T18:04:40;6.80;1.00
5802;DHT22;2927;49.366;8.530;2023-04-03T18:07:06;6.70;1.00
5802;DHT22;2927;49.366;8.530;2023-04-03T18:09:35;6.70;1.00
5802;DHT22;2927;49.366;8.530;2023-04-03T18:12:03;6.70;1.00
5802;DHT22;2927;49.366;8.530;2023-04-03T18:14:31;6.60;1.00
5802;DHT22;2927;49.366;8.530;2023-04-03T18:16:58;6.60;1.00
5802;DHT22;2927;49.366;8.530;2023-04-03T18:19:24;6.50;1.00
5802;DHT22;2927;49.366;8.530;2023-04-03T18:21:51;6.40;1.00
5802;DHT22;2927;49.366;8.530;2023-04-03T18:24:19;6.40;1.00
5802;DHT22;2927;49.366;8.530;2023-04-03T18:26:48;6.40;1.00